sensor_id;sensor_type;location;lat;lon;timestamp;P1;durP1;ratioP1;P2;durP2;ratioP2
13291;SDS011;6714;53.056;8.690;2022-07-29T00:00:23;1.03;;;1.00;;
13291;SDS011;6714;53.056;8.690;2022-07-29T00:03:05;1.53;;;1.30;;
13291;SDS011;6714;53.056;8.690;2022-07-29T00:05:47;1.00;;;1.00;;
13291;SDS011;6714;53.056;8.690;2022-07-29T00:08:29;1.33;;;1.23;;
13291;SDS011;6714;53.056;8.690;2022-07-29T00:11:13;1.27;;;1.17;;
13291;SDS011;6714;53.056;8.690;2022-07-29T00:13:55;1.40;;;1.30;;
13291;SDS011;6714;53.056;8.690;2022-07-29T00:16:37;1.60;;;1.10;;
13291;SDS011;6714;53.056;8.690;2022-07-29T00:19:20;1.30;;;1.20;;
13291;SDS011;6714;53.056;8.690;2022-07-29T00:22:02;1.93;;;1.30;;
13291;SDS011;6714;53.056;8.690;2022-07-29T00:24:44;2.07;;;1.30;;
13291;SDS011;6714;53.056;8.690;2022-07-29T00:27:27;1.47;;;1.20;;
13291;SDS011;6714;53.056;8.690;2022-07-29T00:30:10;3.37;;;1.43;;
13291;SDS011;6714;53.056;8.690;2022-07-29T00:32:52;1.50;;;1.40;;
13291;SDS011;6714;53.056;8.690;2022-07-29T00:35:35;1.60;;;1.50;;
13291;SDS011;6714;53.056;8.690;2022-07-29T00:38:26;1.70;;;1.30;;
13291;SDS011;6714;53.056;8.690;2022-07-29T00:41:08;1.50;;;1.40;;
13291;SDS011;6714;53.056;8.690;2022-07-29T00:43:51;1.70;;;1.50;;
13291;SDS011;6714;53.056;8.690;2022-07-29T00:46:34;1.53;;;1.20;;
13291;SDS011;6714;53.056;8.690;2022-07-29T00:49:16;2.63;;;1.30;;
13291;SDS011;6714;53.056;8.690;2022-07-29T00:51:58;1.50;;;1.40;;
13291;SDS011;6714;53.056;8.690;2022-07-29T00:54:42;1.60;;;1.50;;
13291;SDS011;6714;53.056;8.690;2022-07-29T00:57:24;1.60;;;1.37;;
13291;SDS011;6714;53.056;8.690;2022-07-29T01:00:09;2.07;;;1.17;;
13291;SDS011;6714;53.056;8.690;2022-07-29T01:02:51;1.60;;;1.20;;
13291;SDS011;6714;53.056;8.690;2022-07-29T01:05:33;1.20;;;1.10;;
13291;SDS011;6714;53.056;8.690;2022-07-29T01:08:16;2.47;;;1.20;;
13291;SDS011;6714;53.056;8.690;2022-07-29T01:10:59;3.37;;;1.30;;
13291;SDS011;6714;53.056;8.690;2022-07-29T01:13:41;1.40;;;1.30;;
13291;SDS011;6714;53.056;8.690;2022-07-29T01:16:27;2.10;;;1.40;;
13291;SDS011;6714;53.056;8.690;2022-07-29T01:19:13;1.53;;;1.33;;
13291;SDS011;6714;53.056;8.690;2022-07-29T01:22:00;1.37;;;1.27;;
13291;SDS011;6714;53.056;8.690;2022-07-29T01:24:55;1.20;;;1.20;;
13291;SDS011;6714;53.056;8.690;2022-07-29T01:27:44;2.03;;;1.30;;
13291;SDS011;6714;53.056;8.690;2022-07-29T01:30:31;2.00;;;1.53;;
13291;SDS011;6714;53.056;8.690;2022-07-29T01:33:15;1.77;;;1.23;;
13291;SDS011;6714;53.056;8.690;2022-07-29T01:36:14;1.40;;;1.30;;
13291;SDS011;6714;53.056;8.690;2022-07-29T01:38:58;2.20;;;1.50;;
13291;SDS011;6714;53.056;8.690;2022-07-29T01:41:43;1.97;;;1.37;;
13291;SDS011;6714;53.056;8.690;2022-07-29T01:44:30;1.50;;;1.40;;
13291;SDS011;6714;53.056;8.690;2022-07-29T01:47:15;3.70;;;1.80;;
13291;SDS011;6714;53.056;8.690;2022-07-29T01:50:00;2.17;;;1.47;;
13291;SDS011;6714;53.056;8.690;2022-07-29T01:52:44;1.60;;;1.30;;
13291;SDS011;6714;53.056;8.690;2022-07-29T01:55:29;2.10;;;1.50;;
13291;SDS011;6714;53.056;8.690;2022-07-29T01:58:12;2.30;;;1.50;;
13291;SDS011;6714;53.056;8.690;2022-07-29T02:00:56;2.07;;;1.10;;
13291;SDS011;6714;53.056;8.690;2022-07-29T02:03:40;1.50;;;1.40;;
13291;SDS011;6714;53.056;8.690;2022-07-29T02:06:23;2.07;;;1.60;;
13291;SDS011;6714;53.056;8.690;2022-07-29T02:09:06;1.70;;;1.20;;
13291;SDS011;6714;53.056;8.690;2022-07-29T02:11:49;2.40;;;1.20;;
13291;SDS011;6714;53.056;8.690;2022-07-29T02:14:33;2.17;;;1.20;;
13291;SDS011;6714;53.056;8.690;2022-07-29T02:17:19;1.77;;;1.30;;
13291;SDS011;6714;53.056;8.690;2022-07-29T02:20:04;1.03;;;1.00;;
13291;SDS011;6714;53.056;8.690;2022-07-29T02:22:47;2.00;;;1.10;;
13291;SDS011;6714;53.056;8.690;2022-07-29T02:25:30;2.70;;;1.50;;
13291;SDS011;6714;53.056;8.690;2022-07-29T02:28:13;1.23;;;1.13;;
13291;SDS011;6714;53.056;8.690;2022-07-29T02:30:58;1.33;;;1.20;;
13291;SDS011;6714;53.056;8.690;2022-07-29T02:33:41;1.10;;;1.10;;
13291;SDS011;6714;53.056;8.690;2022-07-29T02:36:25;1.43;;;1.33;;
13291;SDS011;6714;53.056;8.690;2022-07-29T02:39:07;2.47;;;1.50;;
13291;SDS011;6714;53.056;8.690;2022-07-29T02:41:52;1.20;;;1.20;;
13291;SDS011;6714;53.056;8.690;2022-07-29T02:44:34;2.50;;;1.40;;
13291;SDS011;6714;53.056;8.690;2022-07-29T02:47:19;1.80;;;1.47;;
13291;SDS011;6714;53.056;8.690;2022-07-29T02:50:04;2.00;;;1.20;;
13291;SDS011;6714;53.056;8.690;2022-07-29T02:52:52;1.50;;;1.30;;
13291;SDS011;6714;53.056;8.690;2022-07-29T02:55:37;1.33;;;1.17;;
13291;SDS011;6714;53.056;8.690;2022-07-29T02:58:21;1.50;;;1.10;;
13291;SDS011;6714;53.056;8.690;2022-07-29T03:01:08;2.40;;;1.10;;
13291;SDS011;6714;53.056;8.690;2022-07-29T03:03:53;2.43;;;1.27;;
13291;SDS011;6714;53.056;8.690;2022-07-29T03:06:36;1.57;;;1.20;;
13291;SDS011;6714;53.056;8.690;2022-07-29T03:09:20;1.60;;;1.37;;
13291;SDS011;6714;53.056;8.690;2022-07-29T03:12:03;1.70;;;1.20;;
13291;SDS011;6714;53.056;8.690;2022-07-29T03:14:46;1.80;;;1.30;;
13291;SDS011;6714;53.056;8.690;2022-07-29T03:17:28;5.63;;;1.30;;
13291;SDS011;6714;53.056;8.690;2022-07-29T03:20:12;1.80;;;1.50;;
13291;SDS011;6714;53.056;8.690;2022-07-29T03:22:54;2.90;;;1.43;;
13291;SDS011;6714;53.056;8.690;2022-07-29T03:25:38;1.67;;;1.50;;
13291;SDS011;6714;53.056;8.690;2022-07-29T03:28:20;2.70;;;1.47;;
13291;SDS011;6714;53.056;8.690;2022-07-29T03:31:02;1.47;;;1.37;;
13291;SDS011;6714;53.056;8.690;2022-07-29T03:33:44;1.40;;;1.30;;
13291;SDS011;6714;53.056;8.690;2022-07-29T03:36:27;1.30;;;1.20;;
13291;SDS011;6714;53.056;8.690;2022-07-29T03:39:09;1.63;;;1.43;;
13291;SDS011;6714;53.056;8.690;2022-07-29T03:41:55;1.60;;;1.50;;
13291;SDS011;6714;53.056;8.690;2022-07-29T03:44:37;1.57;;;1.30;;
13291;SDS011;6714;53.056;8.690;2022-07-29T03:47:22;4.27;;;1.80;;
13291;SDS011;6714;53.056;8.690;2022-07-29T03:50:06;1.27;;;1.10;;
13291;SDS011;6714;53.056;8.690;2022-07-29T03:52:48;2.70;;;1.77;;
13291;SDS011;6714;53.056;8.690;2022-07-29T03:55:32;2.67;;;1.60;;
13291;SDS011;6714;53.056;8.690;2022-07-29T03:58:17;2.87;;;1.40;;
13291;SDS011;6714;53.056;8.690;2022-07-29T04:01:00;1.50;;;1.40;;
13291;SDS011;6714;53.056;8.690;2022-07-29T04:03:42;2.10;;;1.50;;
13291;SDS011;6714;53.056;8.690;2022-07-29T04:06:25;1.53;;;1.43;;
13291;SDS011;6714;53.056;8.690;2022-07-29T04:09:07;3.87;;;1.70;;
13291;SDS011;6714;53.056;8.690;2022-07-29T04:11:50;1.57;;;1.47;;
13291;SDS011;6714;53.056;8.690;2022-07-29T04:14:33;1.70;;;1.20;;
13291;SDS011;6714;53.056;8.690;2022-07-29T04:17:16;1.27;;;1.27;;
13291;SDS011;6714;53.056;8.690;2022-07-29T04:19:58;2.03;;;1.70;;
13291;SDS011;6714;53.056;8.690;2022-07-29T04:22:40;5.73;;;2.03;;
13291;SDS011;6714;53.056;8.690;2022-07-29T04:25:22;3.70;;;1.90;;
13291;SDS011;6714;53.056;8.690;2022-07-29T04:28:05;2.23;;;1.73;;
13291;SDS011;6714;53.056;8.690;2022-07-29T04:30:48;2.63;;;1.80;;
13291;SDS011;6714;53.056;8.690;2022-07-29T04:33:30;2.50;;;1.90;;
13291;SDS011;6714;53.056;8.690;2022-07-29T04:36:13;3.73;;;1.70;;
13291;SDS011;6714;53.056;8.690;2022-07-29T04:38:55;1.73;;;1.60;;
13291;SDS011;6714;53.056;8.690;2022-07-29T04:41:37;3.40;;;1.90;;
13291;SDS011;6714;53.056;8.690;2022-07-29T04:44:19;2.93;;;2.00;;
13291;SDS011;6714;53.056;8.690;2022-07-29T04:47:03;3.47;;;2.20;;
13291;SDS011;6714;53.056;8.690;2022-07-29T04:49:45;2.50;;;1.60;;
13291;SDS011;6714;53.056;8.690;2022-07-29T04:52:28;2.37;;;2.17;;
13291;SDS011;6714;53.056;8.690;2022-07-29T04:55:10;2.57;;;2.00;;
13291;SDS011;6714;53.056;8.690;2022-07-29T04:57:52;2.00;;;1.63;;
13291;SDS011;6714;53.056;8.690;2022-07-29T05:00:34;2.53;;;2.13;;
13291;SDS011;6714;53.056;8.690;2022-07-29T05:03:18;2.73;;;1.90;;
13291;SDS011;6714;53.056;8.690;2022-07-29T05:06:00;3.70;;;2.17;;
13291;SDS011;6714;53.056;8.690;2022-07-29T05:08:42;2.50;;;2.30;;
13291;SDS011;6714;53.056;8.690;2022-07-29T05:11:24;3.53;;;1.90;;
13291;SDS011;6714;53.056;8.690;2022-07-29T05:14:06;2.27;;;1.93;;
13291;SDS011;6714;53.056;8.690;2022-07-29T05:16:48;3.70;;;2.27;;
13291;SDS011;6714;53.056;8.690;2022-07-29T05:19:33;1.80;;;1.70;;
13291;SDS011;6714;53.056;8.690;2022-07-29T05:22:15;5.00;;;2.43;;
13291;SDS011;6714;53.056;8.690;2022-07-29T05:24:57;2.43;;;2.23;;
13291;SDS011;6714;53.056;8.690;2022-07-29T05:27:39;2.70;;;2.10;;
13291;SDS011;6714;53.056;8.690;2022-07-29T05:30:21;3.20;;;2.20;;
13291;SDS011;6714;53.056;8.690;2022-07-29T05:33:03;3.67;;;2.20;;
13291;SDS011;6714;53.056;8.690;2022-07-29T05:35:47;3.80;;;2.30;;
13291;SDS011;6714;53.056;8.690;2022-07-29T05:38:29;4.37;;;2.30;;
13291;SDS011;6714;53.056;8.690;2022-07-29T05:41:11;2.23;;;2.13;;
13291;SDS011;6714;53.056;8.690;2022-07-29T05:43:53;2.30;;;2.10;;
13291;SDS011;6714;53.056;8.690;2022-07-29T05:46:35;2.97;;;2.60;;
13291;SDS011;6714;53.056;8.690;2022-07-29T05:49:18;5.20;;;2.70;;
13291;SDS011;6714;53.056;8.690;2022-07-29T05:52:01;2.73;;;2.17;;
13291;SDS011;6714;53.056;8.690;2022-07-29T05:54:43;2.90;;;2.17;;
13291;SDS011;6714;53.056;8.690;2022-07-29T05:57:25;2.30;;;2.10;;
13291;SDS011;6714;53.056;8.690;2022-07-29T06:00:08;3.70;;;2.03;;
13291;SDS011;6714;53.056;8.690;2022-07-29T06:02:51;3.03;;;2.00;;
13291;SDS011;6714;53.056;8.690;2022-07-29T06:05:33;2.37;;;2.10;;
13291;SDS011;6714;53.056;8.690;2022-07-29T06:08:16;5.47;;;2.60;;
13291;SDS011;6714;53.056;8.690;2022-07-29T06:10:59;3.23;;;2.17;;
13291;SDS011;6714;53.056;8.690;2022-07-29T06:13:41;2.33;;;2.10;;
13291;SDS011;6714;53.056;8.690;2022-07-29T06:16:23;2.53;;;2.10;;
13291;SDS011;6714;53.056;8.690;2022-07-29T06:19:05;2.30;;;2.10;;
13291;SDS011;6714;53.056;8.690;2022-07-29T06:21:47;3.47;;;2.40;;
13291;SDS011;6714;53.056;8.690;2022-07-29T06:24:31;3.80;;;2.33;;
13291;SDS011;6714;53.056;8.690;2022-07-29T06:27:13;4.47;;;2.80;;
13291;SDS011;6714;53.056;8.690;2022-07-29T06:29:56;3.23;;;2.67;;
13291;SDS011;6714;53.056;8.690;2022-07-29T06:32:38;2.33;;;2.13;;
13291;SDS011;6714;53.056;8.690;2022-07-29T06:35:20;2.60;;;2.27;;
13291;SDS011;6714;53.056;8.690;2022-07-29T06:38:03;3.77;;;2.50;;
13291;SDS011;6714;53.056;8.690;2022-07-29T06:40:46;3.90;;;2.47;;
13291;SDS011;6714;53.056;8.690;2022-07-29T06:43:41;2.90;;;2.40;;
13291;SDS011;6714;53.056;8.690;2022-07-29T06:46:24;5.50;;;2.40;;
13291;SDS011;6714;53.056;8.690;2022-07-29T06:49:07;4.93;;;2.57;;
13291;SDS011;6714;53.056;8.690;2022-07-29T06:51:49;2.60;;;2.37;;
13291;SDS011;6714;53.056;8.690;2022-07-29T06:54:31;2.57;;;2.30;;
13291;SDS011;6714;53.056;8.690;2022-07-29T06:57:15;2.73;;;2.30;;
13291;SDS011;6714;53.056;8.690;2022-07-29T06:59:57;3.03;;;2.60;;
13291;SDS011;6714;53.056;8.690;2022-07-29T07:02:39;4.57;;;2.20;;
13291;SDS011;6714;53.056;8.690;2022-07-29T07:05:21;2.97;;;2.50;;
13291;SDS011;6714;53.056;8.690;2022-07-29T07:08:04;2.43;;;2.30;;
13291;SDS011;6714;53.056;8.690;2022-07-29T07:10:46;4.10;;;2.47;;
13291;SDS011;6714;53.056;8.690;2022-07-29T07:13:29;4.37;;;2.77;;
13291;SDS011;6714;53.056;8.690;2022-07-29T07:16:14;3.97;;;2.73;;
13291;SDS011;6714;53.056;8.690;2022-07-29T07:18:56;2.80;;;2.40;;
13291;SDS011;6714;53.056;8.690;2022-07-29T07:21:39;3.93;;;2.27;;
13291;SDS011;6714;53.056;8.690;2022-07-29T07:24:21;2.53;;;2.30;;
13291;SDS011;6714;53.056;8.690;2022-07-29T07:27:03;3.93;;;2.53;;
13291;SDS011;6714;53.056;8.690;2022-07-29T07:29:47;4.13;;;2.27;;
13291;SDS011;6714;53.056;8.690;2022-07-29T07:32:29;3.10;;;2.30;;
13291;SDS011;6714;53.056;8.690;2022-07-29T07:35:11;3.00;;;1.90;;
13291;SDS011;6714;53.056;8.690;2022-07-29T07:37:54;3.40;;;2.60;;
13291;SDS011;6714;53.056;8.690;2022-07-29T07:40:36;2.97;;;2.20;;
13291;SDS011;6714;53.056;8.690;2022-07-29T07:43:18;5.23;;;2.53;;
13291;SDS011;6714;53.056;8.690;2022-07-29T07:46:01;6.23;;;2.93;;
13291;SDS011;6714;53.056;8.690;2022-07-29T07:48:44;3.97;;;2.67;;
13291;SDS011;6714;53.056;8.690;2022-07-29T07:51:26;3.30;;;2.20;;
13291;SDS011;6714;53.056;8.690;2022-07-29T07:54:08;3.43;;;2.37;;
13291;SDS011;6714;53.056;8.690;2022-07-29T07:56:50;5.77;;;2.70;;
13291;SDS011;6714;53.056;8.690;2022-07-29T07:59:32;5.07;;;2.40;;
13291;SDS011;6714;53.056;8.690;2022-07-29T08:02:16;2.93;;;2.43;;
13291;SDS011;6714;53.056;8.690;2022-07-29T08:04:58;4.13;;;2.47;;
13291;SDS011;6714;53.056;8.690;2022-07-29T08:07:40;4.73;;;2.70;;
13291;SDS011;6714;53.056;8.690;2022-07-29T08:10:22;4.73;;;2.60;;
13291;SDS011;6714;53.056;8.690;2022-07-29T08:13:22;3.80;;;2.40;;
13291;SDS011;6714;53.056;8.690;2022-07-29T08:16:05;2.33;;;2.13;;
13291;SDS011;6714;53.056;8.690;2022-07-29T08:18:56;4.07;;;2.53;;
13291;SDS011;6714;53.056;8.690;2022-07-29T08:21:38;2.93;;;2.27;;
13291;SDS011;6714;53.056;8.690;2022-07-29T08:24:20;4.00;;;2.70;;
13291;SDS011;6714;53.056;8.690;2022-07-29T08:27:21;8.30;;;2.43;;
13291;SDS011;6714;53.056;8.690;2022-07-29T08:30:03;9.30;;;2.73;;
13291;SDS011;6714;53.056;8.690;2022-07-29T08:32:47;3.57;;;2.47;;
13291;SDS011;6714;53.056;8.690;2022-07-29T08:35:32;2.80;;;2.30;;
13291;SDS011;6714;53.056;8.690;2022-07-29T08:38:14;5.80;;;2.70;;
13291;SDS011;6714;53.056;8.690;2022-07-29T08:40:56;3.20;;;2.40;;
13291;SDS011;6714;53.056;8.690;2022-07-29T08:43:39;3.67;;;2.50;;
13291;SDS011;6714;53.056;8.690;2022-07-29T08:46:21;3.63;;;2.33;;
13291;SDS011;6714;53.056;8.690;2022-07-29T08:49:03;2.77;;;2.13;;
13291;SDS011;6714;53.056;8.690;2022-07-29T08:51:47;3.60;;;2.13;;
13291;SDS011;6714;53.056;8.690;2022-07-29T08:54:29;5.10;;;2.50;;
13291;SDS011;6714;53.056;8.690;2022-07-29T08:57:12;3.03;;;2.60;;
13291;SDS011;6714;53.056;8.690;2022-07-29T08:59:54;3.83;;;2.17;;
13291;SDS011;6714;53.056;8.690;2022-07-29T09:02:39;5.20;;;2.43;;
13291;SDS011;6714;53.056;8.690;2022-07-29T09:05:21;4.93;;;2.13;;
13291;SDS011;6714;53.056;8.690;2022-07-29T09:08:06;11.30;;;2.27;;
13291;SDS011;6714;53.056;8.690;2022-07-29T09:10:48;2.17;;;1.97;;
13291;SDS011;6714;53.056;8.690;2022-07-29T09:13:31;6.23;;;2.23;;
13291;SDS011;6714;53.056;8.690;2022-07-29T09:16:13;2.97;;;1.80;;
13291;SDS011;6714;53.056;8.690;2022-07-29T09:18:55;2.60;;;2.07;;
13291;SDS011;6714;53.056;8.690;2022-07-29T09:21:40;2.83;;;2.00;;
13291;SDS011;6714;53.056;8.690;2022-07-29T09:24:42;2.55;;;1.85;;
13291;SDS011;6714;53.056;8.690;2022-07-29T09:27:25;3.35;;;2.00;;
13291;SDS011;6714;53.056;8.690;2022-07-29T09:30:09;2.40;;;1.73;;
13291;SDS011;6714;53.056;8.690;2022-07-29T09:32:55;2.03;;;1.83;;
13291;SDS011;6714;53.056;8.690;2022-07-29T09:35:38;1.70;;;1.60;;
13291;SDS011;6714;53.056;8.690;2022-07-29T09:38:20;2.05;;;1.67;;
13291;SDS011;6714;53.056;8.690;2022-07-29T09:41:04;1.88;;;1.70;;
13291;SDS011;6714;53.056;8.690;2022-07-29T09:43:53;3.50;;;1.60;;
13291;SDS011;6714;53.056;8.690;2022-07-29T09:46:35;2.05;;;1.60;;
13291;SDS011;6714;53.056;8.690;2022-07-29T09:49:17;1.92;;;1.70;;
13291;SDS011;6714;53.056;8.690;2022-07-29T09:52:00;1.80;;;1.52;;
13291;SDS011;6714;53.056;8.690;2022-07-29T09:54:42;2.30;;;1.63;;
13291;SDS011;6714;53.056;8.690;2022-07-29T09:57:27;2.97;;;1.73;;
13291;SDS011;6714;53.056;8.690;2022-07-29T10:00:10;2.05;;;1.83;;
13291;SDS011;6714;53.056;8.690;2022-07-29T10:02:52;2.40;;;1.60;;
13291;SDS011;6714;53.056;8.690;2022-07-29T10:05:43;3.40;;;1.80;;
13291;SDS011;6714;53.056;8.690;2022-07-29T10:08:25;3.08;;;1.80;;
13291;SDS011;6714;53.056;8.690;2022-07-29T10:11:11;2.85;;;1.92;;
13291;SDS011;6714;53.056;8.690;2022-07-29T10:13:55;2.13;;;1.60;;
13291;SDS011;6714;53.056;8.690;2022-07-29T10:16:37;1.83;;;1.73;;
13291;SDS011;6714;53.056;8.690;2022-07-29T10:19:20;3.70;;;1.98;;
13291;SDS011;6714;53.056;8.690;2022-07-29T10:22:03;3.25;;;1.70;;
13291;SDS011;6714;53.056;8.690;2022-07-29T10:24:45;2.90;;;1.90;;
13291;SDS011;6714;53.056;8.690;2022-07-29T10:27:28;2.78;;;1.65;;
13291;SDS011;6714;53.056;8.690;2022-07-29T10:30:12;1.92;;;1.65;;
13291;SDS011;6714;53.056;8.690;2022-07-29T10:33:14;2.90;;;1.83;;
13291;SDS011;6714;53.056;8.690;2022-07-29T10:36:00;1.80;;;1.70;;
13291;SDS011;6714;53.056;8.690;2022-07-29T10:38:54;1.80;;;1.70;;
13291;SDS011;6714;53.056;8.690;2022-07-29T10:41:47;1.75;;;1.55;;
13291;SDS011;6714;53.056;8.690;2022-07-29T10:44:33;5.20;;;1.90;;
13291;SDS011;6714;53.056;8.690;2022-07-29T10:47:21;2.78;;;1.80;;
13291;SDS011;6714;53.056;8.690;2022-07-29T10:50:04;2.50;;;1.60;;
13291;SDS011;6714;53.056;8.690;2022-07-29T10:52:54;1.40;;;1.30;;
13291;SDS011;6714;53.056;8.690;2022-07-29T10:55:40;1.98;;;1.67;;
13291;SDS011;6714;53.056;8.690;2022-07-29T10:58:24;1.50;;;1.40;;
13291;SDS011;6714;53.056;8.690;2022-07-29T11:01:27;1.50;;;1.40;;
13291;SDS011;6714;53.056;8.690;2022-07-29T11:04:12;2.80;;;1.60;;
13291;SDS011;6714;53.056;8.690;2022-07-29T11:07:07;1.80;;;1.70;;
13291;SDS011;6714;53.056;8.690;2022-07-29T11:12:47;1.58;;;1.48;;
13291;SDS011;6714;53.056;8.690;2022-07-29T11:15:29;2.30;;;1.30;;
13291;SDS011;6714;53.056;8.690;2022-07-29T11:18:31;1.70;;;1.60;;
13291;SDS011;6714;53.056;8.690;2022-07-29T11:24:12;1.75;;;1.40;;
13291;SDS011;6714;53.056;8.690;2022-07-29T11:27:10;2.05;;;1.50;;
13291;SDS011;6714;53.056;8.690;2022-07-29T11:29:54;3.22;;;1.60;;
13291;SDS011;6714;53.056;8.690;2022-07-29T11:32:37;1.60;;;1.50;;
13291;SDS011;6714;53.056;8.690;2022-07-29T11:35:19;1.55;;;1.45;;
13291;SDS011;6714;53.056;8.690;2022-07-29T11:41:20;2.45;;;1.63;;
13291;SDS011;6714;53.056;8.690;2022-07-29T11:44:04;1.30;;;1.20;;
13291;SDS011;6714;53.056;8.690;2022-07-29T11:46:46;1.83;;;1.60;;
13291;SDS011;6714;53.056;8.690;2022-07-29T11:49:29;1.25;;;1.10;;
13291;SDS011;6714;53.056;8.690;2022-07-29T11:52:11;1.50;;;1.40;;
13291;SDS011;6714;53.056;8.690;2022-07-29T11:54:53;1.40;;;1.30;;
13291;SDS011;6714;53.056;8.690;2022-07-29T11:57:46;1.55;;;1.40;;
13291;SDS011;6714;53.056;8.690;2022-07-29T12:00:29;1.50;;;1.40;;
13291;SDS011;6714;53.056;8.690;2022-07-29T12:03:12;1.30;;;1.20;;
13291;SDS011;6714;53.056;8.690;2022-07-29T12:06:10;1.23;;;1.13;;
13291;SDS011;6714;53.056;8.690;2022-07-29T12:08:53;1.73;;;1.60;;
13291;SDS011;6714;53.056;8.690;2022-07-29T12:11:35;1.85;;;1.33;;
13291;SDS011;6714;53.056;8.690;2022-07-29T12:14:26;1.38;;;1.27;;
13291;SDS011;6714;53.056;8.690;2022-07-29T12:17:08;2.55;;;1.50;;
13291;SDS011;6714;53.056;8.690;2022-07-29T12:20:07;1.88;;;1.38;;
13291;SDS011;6714;53.056;8.690;2022-07-29T12:22:49;1.55;;;1.45;;
13291;SDS011;6714;53.056;8.690;2022-07-29T12:25:34;1.58;;;1.48;;
13291;SDS011;6714;53.056;8.690;2022-07-29T12:28:17;1.77;;;1.27;;
13291;SDS011;6714;53.056;8.690;2022-07-29T12:31:03;1.50;;;1.38;;
13291;SDS011;6714;53.056;8.690;2022-07-29T12:33:51;1.40;;;1.30;;
13291;SDS011;6714;53.056;8.690;2022-07-29T12:36:33;2.15;;;1.20;;
13291;SDS011;6714;53.056;8.690;2022-07-29T12:39:16;1.88;;;1.30;;
13291;SDS011;6714;53.056;8.690;2022-07-29T12:41:58;2.20;;;1.60;;
13291;SDS011;6714;53.056;8.690;2022-07-29T12:44:47;2.65;;;1.55;;
13291;SDS011;6714;53.056;8.690;2022-07-29T12:47:31;1.38;;;1.27;;
13291;SDS011;6714;53.056;8.690;2022-07-29T12:50:13;1.55;;;1.45;;
13291;SDS011;6714;53.056;8.690;2022-07-29T12:53:07;1.45;;;1.35;;
13291;SDS011;6714;53.056;8.690;2022-07-29T12:55:50;2.03;;;1.50;;
13291;SDS011;6714;53.056;8.690;2022-07-29T12:58:33;1.10;;;1.10;;
13291;SDS011;6714;53.056;8.690;2022-07-29T13:01:16;1.52;;;1.40;;
13291;SDS011;6714;53.056;8.690;2022-07-29T13:04:01;1.50;;;1.40;;
13291;SDS011;6714;53.056;8.690;2022-07-29T13:06:45;1.35;;;1.25;;
13291;SDS011;6714;53.056;8.690;2022-07-29T13:09:36;1.27;;;1.17;;
13291;SDS011;6714;53.056;8.690;2022-07-29T13:12:18;3.28;;;1.48;;
13291;SDS011;6714;53.056;8.690;2022-07-29T13:15:00;1.48;;;1.38;;
13291;SDS011;6714;53.056;8.690;2022-07-29T13:17:53;1.38;;;1.27;;
13291;SDS011;6714;53.056;8.690;2022-07-29T13:20:37;1.40;;;1.30;;
13291;SDS011;6714;53.056;8.690;2022-07-29T13:23:19;1.25;;;1.15;;
13291;SDS011;6714;53.056;8.690;2022-07-29T13:26:04;1.40;;;1.30;;
13291;SDS011;6714;53.056;8.690;2022-07-29T13:28:47;1.40;;;1.30;;
13291;SDS011;6714;53.056;8.690;2022-07-29T13:31:30;1.20;;;1.10;;
13291;SDS011;6714;53.056;8.690;2022-07-29T13:34:12;1.23;;;1.23;;
13291;SDS011;6714;53.056;8.690;2022-07-29T13:36:55;1.35;;;1.25;;
13291;SDS011;6714;53.056;8.690;2022-07-29T13:39:37;1.08;;;1.08;;
13291;SDS011;6714;53.056;8.690;2022-07-29T13:42:20;1.40;;;1.30;;
13291;SDS011;6714;53.056;8.690;2022-07-29T13:45:02;1.58;;;1.25;;
13291;SDS011;6714;53.056;8.690;2022-07-29T13:47:45;1.33;;;1.23;;
13291;SDS011;6714;53.056;8.690;2022-07-29T13:50:27;1.20;;;1.20;;
13291;SDS011;6714;53.056;8.690;2022-07-29T13:53:10;1.08;;;1.08;;
13291;SDS011;6714;53.056;8.690;2022-07-29T13:55:53;2.03;;;1.48;;
13291;SDS011;6714;53.056;8.690;2022-07-29T13:58:35;1.52;;;1.42;;
13291;SDS011;6714;53.056;8.690;2022-07-29T14:01:18;1.88;;;1.33;;
13291;SDS011;6714;53.056;8.690;2022-07-29T14:04:00;1.30;;;1.20;;
13291;SDS011;6714;53.056;8.690;2022-07-29T14:06:42;1.58;;;1.13;;
13291;SDS011;6714;53.056;8.690;2022-07-29T14:09:25;1.75;;;1.30;;
13291;SDS011;6714;53.056;8.690;2022-07-29T14:12:08;1.83;;;1.38;;
13291;SDS011;6714;53.056;8.690;2022-07-29T14:14:50;2.25;;;1.40;;
13291;SDS011;6714;53.056;8.690;2022-07-29T14:17:32;1.48;;;1.30;;
13291;SDS011;6714;53.056;8.690;2022-07-29T14:20:15;1.25;;;1.25;;
13291;SDS011;6714;53.056;8.690;2022-07-29T14:22:57;1.48;;;1.38;;
13291;SDS011;6714;53.056;8.690;2022-07-29T14:25:41;1.92;;;1.33;;
13291;SDS011;6714;53.056;8.690;2022-07-29T14:28:23;1.48;;;1.38;;
13291;SDS011;6714;53.056;8.690;2022-07-29T14:31:05;2.50;;;1.50;;
13291;SDS011;6714;53.056;8.690;2022-07-29T14:33:47;1.75;;;1.27;;
13291;SDS011;6714;53.056;8.690;2022-07-29T14:36:30;2.55;;;1.42;;
13291;SDS011;6714;53.056;8.690;2022-07-29T14:39:12;1.40;;;1.30;;
13291;SDS011;6714;53.056;8.690;2022-07-29T14:41:57;1.55;;;1.38;;
13291;SDS011;6714;53.056;8.690;2022-07-29T14:44:39;3.03;;;1.50;;
13291;SDS011;6714;53.056;8.690;2022-07-29T14:47:21;1.55;;;1.42;;
13291;SDS011;6714;53.056;8.690;2022-07-29T14:50:04;2.03;;;1.60;;
13291;SDS011;6714;53.056;8.690;2022-07-29T14:52:46;1.98;;;1.20;;
13291;SDS011;6714;53.056;8.690;2022-07-29T14:55:28;2.25;;;1.52;;
13291;SDS011;6714;53.056;8.690;2022-07-29T14:58:12;1.60;;;1.50;;
13291;SDS011;6714;53.056;8.690;2022-07-29T15:00:54;1.70;;;1.40;;
13291;SDS011;6714;53.056;8.690;2022-07-29T15:03:36;1.48;;;1.20;;
13291;SDS011;6714;53.056;8.690;2022-07-29T15:06:18;1.67;;;1.30;;
13291;SDS011;6714;53.056;8.690;2022-07-29T15:09:01;1.40;;;1.30;;
13291;SDS011;6714;53.056;8.690;2022-07-29T15:11:43;1.40;;;1.30;;
13291;SDS011;6714;53.056;8.690;2022-07-29T15:14:26;1.35;;;1.25;;
13291;SDS011;6714;53.056;8.690;2022-07-29T15:17:09;1.48;;;1.38;;
13291;SDS011;6714;53.056;8.690;2022-07-29T15:19:51;2.35;;;1.85;;
13291;SDS011;6714;53.056;8.690;2022-07-29T15:22:33;2.20;;;1.30;;
13291;SDS011;6714;53.056;8.690;2022-07-29T15:25:15;1.73;;;1.50;;
13291;SDS011;6714;53.056;8.690;2022-07-29T15:27:57;1.67;;;1.50;;
13291;SDS011;6714;53.056;8.690;2022-07-29T15:30:44;1.63;;;1.45;;
13291;SDS011;6714;53.056;8.690;2022-07-29T15:33:27;2.70;;;1.55;;
13291;SDS011;6714;53.056;8.690;2022-07-29T15:36:09;1.77;;;1.50;;
13291;SDS011;6714;53.056;8.690;2022-07-29T15:38:52;2.33;;;1.60;;
13291;SDS011;6714;53.056;8.690;2022-07-29T15:41:34;1.70;;;1.60;;
13291;SDS011;6714;53.056;8.690;2022-07-29T15:44:17;1.40;;;1.30;;
13291;SDS011;6714;53.056;8.690;2022-07-29T15:47:00;1.60;;;1.50;;
13291;SDS011;6714;53.056;8.690;2022-07-29T15:49:46;1.45;;;1.30;;
13291;SDS011;6714;53.056;8.690;2022-07-29T15:52:28;1.50;;;1.40;;
13291;SDS011;6714;53.056;8.690;2022-07-29T15:55:11;2.10;;;1.52;;
13291;SDS011;6714;53.056;8.690;2022-07-29T15:57:54;1.45;;;1.35;;
13291;SDS011;6714;53.056;8.690;2022-07-29T16:00:36;2.25;;;1.42;;
13291;SDS011;6714;53.056;8.690;2022-07-29T16:03:20;2.85;;;1.60;;
13291;SDS011;6714;53.056;8.690;2022-07-29T16:06:03;1.58;;;1.48;;
13291;SDS011;6714;53.056;8.690;2022-07-29T16:08:46;2.92;;;1.65;;
13291;SDS011;6714;53.056;8.690;2022-07-29T16:11:28;2.17;;;1.30;;
13291;SDS011;6714;53.056;8.690;2022-07-29T16:14:10;1.85;;;1.45;;
13291;SDS011;6714;53.056;8.690;2022-07-29T16:16:52;1.20;;;1.20;;
13291;SDS011;6714;53.056;8.690;2022-07-29T16:19:36;1.63;;;1.52;;
13291;SDS011;6714;53.056;8.690;2022-07-29T16:22:18;2.08;;;1.65;;
13291;SDS011;6714;53.056;8.690;2022-07-29T16:25:00;2.20;;;1.70;;
13291;SDS011;6714;53.056;8.690;2022-07-29T16:27:42;1.55;;;1.45;;
13291;SDS011;6714;53.056;8.690;2022-07-29T16:30:25;5.45;;;1.90;;
13291;SDS011;6714;53.056;8.690;2022-07-29T16:33:07;5.38;;;2.10;;
13291;SDS011;6714;53.056;8.690;2022-07-29T16:35:50;1.98;;;1.50;;
13291;SDS011;6714;53.056;8.690;2022-07-29T16:38:32;1.98;;;1.88;;
13291;SDS011;6714;53.056;8.690;2022-07-29T16:41:15;2.70;;;1.48;;
13291;SDS011;6714;53.056;8.690;2022-07-29T16:43:57;3.78;;;1.60;;
13291;SDS011;6714;53.056;8.690;2022-07-29T16:46:42;2.08;;;1.58;;
13291;SDS011;6714;53.056;8.690;2022-07-29T16:49:24;2.00;;;1.50;;